Time;durP1;ratioP1;P1;durP2;ratioP2;P2;SDS_P1;SDS_P2;PMS_P1;PMS_P2;Temp;Humidity;BMP_temperature;BMP_pressure;BME280_temperature;BME280_humidity;BME280_pressure;Samples;Min_cycle;Max_cycle;Signal;HPM_P1;HPM_P2
2021/03/18 00:00:13;;;;;;;14.60;10.43;;;;;;;-144.99;95.96;52419.56;5052878;28;20657;-73
2021/03/18 00:02:39;;;;;;;12.87;11.33;;;;;;;-144.99;96.16;52407.31;5053617;28;20670;-73
2021/03/18 00:05:07;;;;;;;16.10;10.70;;;;;;;-144.99;96.20;52423.63;4695584;28;10000344;-73
2021/03/18 00:07:33;;;;;;;12.67;10.60;;;;;;;-144.99;96.44;52407.31;5053247;28;20246;-73
2021/03/18 00:10:00;;;;;;;12.53;9.63;;;;;;;-144.99;97.11;52456.25;5049466;28;20623;-73
2021/03/18 00:12:27;;;;;;;16.83;12.03;;;;;;;-144.99;97.74;52395.09;5056551;28;20655;-71
2021/03/18 00:14:53;;;;;;;13.87;10.57;;;;;;;-144.99;98.26;52399.19;5054106;28;20688;-71
2021/03/18 00:17:19;;;;;;;13.70;11.10;;;;;;;-144.99;99.13;52358.41;5057868;28;20701;-72
2021/03/18 00:19:45;;;;;;;16.43;11.67;;;;;;;-144.99;99.06;52386.94;5056988;28;20749;-72
2021/03/18 00:22:11;;;;;;;15.07;10.57;;;;;;;-144.99;99.15;52350.25;5058678;28;20684;-73
2021/03/18 00:24:37;;;;;;;16.80;12.60;;;;;;;-144.99;99.50;52386.94;5049989;28;20206;-70
2021/03/18 00:27:05;;;;;;;20.73;15.33;;;;;;;-144.99;99.56;52388.97;5054586;28;20201;-71
2021/03/18 00:29:31;;;;;;;19.40;13.00;;;;;;;-144.99;99.68;52370.63;5051320;28;20197;-70
2021/03/18 00:31:57;;;;;;;28.97;14.57;;;;;;;-144.99;99.79;52382.88;5048830;28;20647;-71
2021/03/18 00:34:23;;;;;;;29.40;13.03;;;;;;;-144.99;100.00;52374.72;5050472;28;20964;-72
2021/03/18 00:36:49;;;;;;;16.47;12.60;;;;;;;-144.99;100.00;52419.56;5059718;28;20622;-71
2021/03/18 00:39:16;;;;;;;17.90;13.17;;;;;;;-144.99;100.00;52423.63;5055738;28;20697;-72
2021/03/18 00:41:41;;;;;;;24.73;13.90;;;;;;;-144.99;100.00;52382.88;5052248;28;21011;-72
2021/03/18 00:44:08;;;;;;;19.93;11.27;;;;;;;-144.99;100.00;52382.88;5057602;28;20940;-72
2021/03/18 00:46:35;;;;;;;16.13;12.37;;;;;;;-144.99;100.00;52399.19;5051028;28;20212;-73
2021/03/18 00:49:01;;;;;;;17.40;10.57;;;;;;;-144.99;100.00;52419.56;5051588;28;20635;-73
2021/03/18 00:51:27;;;;;;;26.07;12.47;;;;;;;-144.99;100.00;52427.72;5058944;28;20767;-72
2021/03/18 00:53:53;;;;;;;20.60;12.20;;;;;;;-144.99;100.00;52399.19;5053182;28;20747;-73
2021/03/18 00:56:20;;;;;;;15.87;9.47;;;;;;;-144.99;100.00;52384.91;5055142;28;21312;-72
2021/03/18 00:58:48;;;;;;;70.20;15.37;;;;;;;-144.99;100.00;52391.03;5054906;28;20659;-71
2021/03/18 01:01:20;;;;;;;45.53;15.73;;;;;;;-144.99;100.00;52386.94;5057066;28;20634;-73
2021/03/18 01:03:46;;;;;;;39.40;9.60;;;;;;;-144.99;100.00;52427.72;5050245;28;21522;-73
2021/03/18 01:06:17;;;;;;;23.90;8.50;;;;;;;-144.99;100.00;52407.31;5046719;28;20636;-73
2021/03/18 01:08:44;;;;;;;45.33;9.77;;;;;;;-144.99;100.00;52356.38;5058213;28;20631;-72
2021/03/18 01:11:12;;;;;;;19.10;7.30;;;;;;;-144.99;100.00;52370.63;5054837;28;20620;-73
2021/03/18 01:13:40;;;;;;;33.83;10.60;;;;;;;-144.99;100.00;52386.94;5060058;28;20664;-72
2021/03/18 01:16:09;;;;;;;64.57;11.37;;;;;;;-144.99;100.00;52391.03;5049504;28;21197;-72
2021/03/18 01:18:40;;;;;;;33.60;15.13;;;;;;;-144.99;100.00;52366.56;5056958;28;20652;-70
2021/03/18 01:21:07;;;;;;;31.73;11.33;;;;;;;-144.99;100.00;52415.47;5055078;28;20624;-72
2021/03/18 01:23:34;;;;;;;17.53;10.30;;;;;;;-144.99;100.00;52374.72;5053538;28;21147;-72
2021/03/18 01:26:01;;;;;;;20.07;9.37;;;;;;;-144.99;100.00;52415.47;5048353;28;21006;-72
2021/03/18 01:28:28;;;;;;;22.17;9.73;;;;;;;-144.99;100.00;52399.19;5054552;28;20642;-73
2021/03/18 01:30:55;;;;;;;11.30;9.30;;;;;;;-144.99;100.00;52378.78;5051975;28;21260;-72
2021/03/18 01:33:21;;;;;;;16.93;10.67;;;;;;;-144.99;100.00;52421.59;5048441;28;20737;-74
2021/03/18 01:35:48;;;;;;;10.97;8.53;;;;;;;-144.99;100.00;52391.03;5058141;28;20619;-71
2021/03/18 01:38:14;;;;;;;22.90;10.27;;;;;;;-144.99;100.00;52391.03;5057379;28;20610;-72
2021/03/18 01:40:40;;;;;;;18.43;10.37;;;;;;;-144.99;100.00;52391.03;5048745;28;20698;-72
2021/03/18 01:43:06;;;;;;;11.60;8.07;;;;;;;-144.99;100.00;52395.09;5055461;28;20662;-73
2021/03/18 01:45:32;;;;;;;14.27;8.77;;;;;;;-144.99;100.00;52354.34;5055780;28;20631;-72
2021/03/18 01:47:59;;;;;;;21.37;10.33;;;;;;;-144.99;100.00;52374.72;5059062;28;21048;-71
2021/03/18 01:50:27;;;;;;;43.93;11.93;;;;;;;-144.99;100.00;52382.88;5052700;28;20624;-72
2021/03/18 01:52:54;;;;;;;26.23;10.97;;;;;;;-144.99;100.00;52350.25;5049693;28;20697;-73
2021/03/18 01:55:28;;;;;;;15.33;9.23;;;;;;;-144.99;100.00;52366.56;5048434;28;20608;-72
2021/03/18 01:57:54;;;;;;;15.63;8.93;;;;;;;-144.99;100.00;52393.06;5045631;28;20976;-72
2021/03/18 02:00:22;;;;;;;34.90;10.57;;;;;;;-144.99;100.00;52386.94;5051536;28;20639;-73
2021/03/18 02:02:48;;;;;;;17.77;9.20;;;;;;;-144.99;100.00;52391.03;5054397;28;20639;-73
2021/03/18 02:05:14;;;;;;;22.67;10.13;;;;;;;-144.99;100.00;52419.56;5045246;28;20635;-73
2021/03/18 02:07:43;;;;;;;17.73;11.07;;;;;;;-144.99;100.00;52366.56;5053067;28;20642;-73
2021/03/18 02:10:11;;;;;;;13.73;10.60;;;;;;;-144.99;100.00;52386.94;5052197;28;20665;-73
2021/03/18 02:12:37;;;;;;;14.23;11.43;;;;;;;-144.99;100.00;52370.63;5058585;28;20674;-72
2021/03/18 02:15:08;;;;;;;26.63;12.43;;;;;;;-144.99;100.00;52378.78;5050587;28;20620;-72
2021/03/18 02:17:43;;;;;;;18.97;11.33;;;;;;;-144.99;100.00;52366.56;5054393;28;20666;-73
2021/03/18 02:20:38;;;;;;;24.23;12.17;;;;;;;-144.99;100.00;52407.31;5049129;28;20683;-72
2021/03/18 02:23:43;;;;;;;22.63;13.03;;;;;;;-144.99;100.00;52397.13;5049006;28;20643;-72
2021/03/18 02:26:29;;;;;;;19.40;10.57;;;;;;;-144.99;100.00;52374.72;5045992;28;20638;-73
2021/03/18 02:29:13;;;;;;;28.17;17.60;;;;;;;-144.99;100.00;52380.84;5043253;28;20619;-73
2021/03/18 02:31:52;;;;;;;37.87;15.00;;;;;;;-144.99;100.00;52393.06;5048620;28;20616;-72
2021/03/18 02:34:46;;;;;;;42.80;16.63;;;;;;;-144.99;100.00;52399.19;5046214;28;20632;-73
2021/03/18 02:37:13;;;;;;;35.03;15.43;;;;;;;-144.99;100.00;52370.63;5048019;28;20619;-73
2021/03/18 02:39:43;;;;;;;20.83;13.53;;;;;;;-144.99;100.00;52366.56;5053210;28;20655;-73
2021/03/18 02:42:17;;;;;;;29.17;16.17;;;;;;;-144.99;100.00;52407.31;5048955;28;20647;-73
2021/03/18 02:44:45;;;;;;;25.93;15.57;;;;;;;-144.99;100.00;52415.47;5056389;28;20635;-73
2021/03/18 02:47:13;;;;;;;32.60;14.27;;;;;;;-144.99;100.00;52403.25;5045000;28;20642;-73
2021/03/18 02:49:42;;;;;;;36.67;15.63;;;;;;;-144.99;100.00;52382.88;5055364;28;20620;-73
2021/03/18 02:52:11;;;;;;;32.83;16.73;;;;;;;-144.99;100.00;52407.31;5053865;28;20999;-74
2021/03/18 02:54:40;;;;;;;37.70;19.10;;;;;;;-144.99;100.00;52368.59;5052055;28;20677;-72
2021/03/18 02:57:08;;;;;;;20.80;12.07;;;;;;;-144.99;100.00;52366.56;5050624;28;20612;-74
2021/03/18 02:59:36;;;;;;;42.13;16.57;;;;;;;-144.99;100.00;52386.94;5054445;28;20682;-72
2021/03/18 03:02:04;;;;;;;42.63;14.47;;;;;;;-144.99;100.00;52364.53;5054638;28;20655;-74
2021/03/18 03:04:34;;;;;;;19.90;14.30;;;;;;;-144.99;100.00;52386.94;5050134;28;20620;-73
2021/03/18 03:07:00;;;;;;;24.10;13.27;;;;;;;-144.99;100.00;52411.41;5052911;28;20702;-73
2021/03/18 03:09:27;;;;;;;28.90;13.83;;;;;;;-144.99;100.00;52395.09;5056632;28;20630;-74
2021/03/18 03:11:55;;;;;;;32.17;13.83;;;;;;;-144.99;100.00;52378.78;5055335;28;21258;-73
2021/03/18 03:14:22;;;;;;;27.43;12.43;;;;;;;-144.99;100.00;52419.56;5058995;28;20684;-71
2021/03/18 03:16:48;;;;;;;23.13;12.03;;;;;;;-144.99;100.00;52395.09;5098769;22;21050;-72
2021/03/18 03:19:15;;;;;;;58.40;12.23;;;;;;;-144.99;100.00;52354.34;5090153;28;20985;-72
2021/03/18 03:21:43;;;;;;;24.03;9.53;;;;;;;-144.99;100.00;52366.56;5091986;28;20618;-71
2021/03/18 03:24:11;;;;;;;32.57;11.87;;;;;;;-144.99;100.00;52403.25;5093566;28;20618;-71
2021/03/18 03:26:39;;;;;;;29.17;10.07;;;;;;;-144.99;100.00;52395.09;5092688;28;20646;-73
2021/03/18 03:29:07;;;;;;;21.53;12.27;;;;;;;-144.99;100.00;52358.41;5092180;28;20689;-72
2021/03/18 03:31:34;;;;;;;18.03;9.27;;;;;;;-144.99;100.00;52378.78;5090105;28;20679;-72
2021/03/18 03:34:01;;;;;;;34.33;9.43;;;;;;;-144.99;100.00;52419.56;5092157;28;20765;-71
2021/03/18 03:36:27;;;;;;;28.23;10.53;;;;;;;-144.99;100.00;52382.88;5091135;28;21230;-72
2021/03/18 03:38:53;;;;;;;29.73;9.93;;;;;;;-144.99;100.00;52415.47;5092009;28;20645;-73
2021/03/18 03:41:19;;;;;;;18.37;8.83;;;;;;;-144.99;100.00;52395.09;5091182;28;20610;-73
2021/03/18 03:43:45;;;;;;;29.57;11.20;;;;;;;-144.99;100.00;52403.25;5091649;28;20622;-73
2021/03/18 03:46:13;;;;;;;10.90;6.93;;;;;;;-144.99;100.00;52370.63;5089437;28;20653;-73
2021/03/18 03:48:39;;;;;;;19.30;7.47;;;;;;;-144.99;100.00;52386.94;5091560;28;20571;-73
2021/03/18 03:51:06;;;;;;;17.23;8.70;;;;;;;-144.99;100.00;52391.03;5081361;28;20976;-73
2021/03/18 03:53:41;;;;;;;49.60;10.50;;;;;;;-144.99;100.00;52386.94;5091209;28;20636;-72
2021/03/18 03:56:17;;;;;;;17.60;9.47;;;;;;;-144.99;100.00;52423.63;5091015;28;20657;-72
2021/03/18 03:58:49;;;;;;;54.60;9.73;;;;;;;-144.99;100.00;52386.94;5090291;28;20766;-73
2021/03/18 04:01:25;;;;;;;23.67;8.27;;;;;;;-144.99;100.00;52362.50;5085267;28;20691;-73
2021/03/18 04:03:53;;;;;;;11.77;7.87;;;;;;;-144.99;100.00;52411.41;5088572;28;20776;-72
2021/03/18 04:06:22;;;;;;;16.17;7.23;;;;;;;-144.99;100.00;52399.19;5091634;28;20653;-72
2021/03/18 04:08:50;;;;;;;22.30;9.00;;;;;;;-144.99;100.00;52423.63;5090082;28;21205;-73
2021/03/18 04:11:17;;;;;;;12.83;8.00;;;;;;;-144.99;100.00;52439.94;5089143;28;20636;-74
2021/03/18 04:13:44;;;;;;;13.37;8.80;;;;;;;-144.99;100.00;52397.13;5081558;28;20614;-75
2021/03/18 04:16:11;;;;;;;19.73;8.40;;;;;;;-144.99;100.00;52421.59;5086041;28;20661;-74
2021/03/18 04:18:41;;;;;;;23.80;14.27;;;;;;;-144.99;100.00;52382.88;5089338;28;20797;-75
2021/03/18 04:21:10;;;;;;;33.77;11.63;;;;;;;-144.99;100.00;52374.72;5088237;28;20624;-75
2021/03/18 04:23:38;;;;;;;18.77;10.37;;;;;;;-144.99;100.00;52346.19;5088666;28;20622;-73
2021/03/18 04:26:05;;;;;;;19.63;11.40;;;;;;;-144.99;100.00;52382.88;5087221;28;20693;-72
2021/03/18 04:28:34;;;;;;;11.97;6.37;;;;;;;-144.99;100.00;52342.09;5078463;28;20633;-74
2021/03/18 04:31:01;;;;;;;16.03;8.87;;;;;;;-144.99;100.00;52370.63;5085793;28;20618;-73
2021/03/18 04:33:28;;;;;;;12.67;8.80;;;;;;;-144.99;100.00;52391.03;5087255;28;20667;-75
2021/03/18 04:35:57;;;;;;;15.27;9.90;;;;;;;-144.99;100.00;52384.91;5087599;28;20649;-74
2021/03/18 04:38:25;;;;;;;10.93;7.70;;;;;;;-144.99;100.00;52382.88;5088200;28;20675;-73
2021/03/18 04:40:51;;;;;;;14.90;9.17;;;;;;;-144.99;100.00;52374.72;5086014;28;20638;-72
2021/03/18 04:43:18;;;;;;;11.87;7.03;;;;;;;-144.99;100.00;52427.72;5087886;28;20679;-75
2021/03/18 04:45:45;;;;;;;21.83;10.33;;;;;;;-144.99;100.00;52403.25;5085618;28;20634;-76
2021/03/18 04:48:13;;;;;;;15.60;7.37;;;;;;;-144.99;100.00;52407.31;5093161;28;20628;-73
2021/03/18 04:50:39;;;;;;;16.03;7.67;;;;;;;-144.99;100.00;52391.03;5083704;28;20625;-72
2021/03/18 04:53:06;;;;;;;14.20;9.10;;;;;;;-144.99;100.00;52354.34;5087728;28;20626;-71
2021/03/18 04:55:32;;;;;;;13.97;8.33;;;;;;;-144.99;100.00;52346.19;5086517;28;20687;-71
2021/03/18 04:58:02;;;;;;;12.87;7.03;;;;;;;-144.99;100.00;52415.47;5087469;28;20622;-74
2021/03/18 05:00:29;;;;;;;17.97;11.20;;;;;;;-144.99;100.00;52386.94;5084597;28;20650;-72
2021/03/18 05:03:01;;;;;;;18.30;10.17;;;;;;;-144.99;100.00;52378.78;5081161;28;20641;-73
2021/03/18 05:05:27;;;;;;;20.33;9.97;;;;;;;-144.99;100.00;52374.72;5086436;28;20698;-72
2021/03/18 05:07:54;;;;;;;27.73;12.03;;;;;;;-144.99;100.00;52391.03;5087833;28;20652;-73
2021/03/18 05:10:24;;;;;;;30.07;15.67;;;;;;;-144.99;100.00;52399.19;5086319;28;20679;-73
2021/03/18 05:12:51;;;;;;;18.37;12.43;;;;;;;-144.99;100.00;52386.94;5087398;28;20622;-72
2021/03/18 05:15:19;;;;;;;31.87;12.03;;;;;;;-144.99;100.00;52407.31;5076521;28;20624;-72
2021/03/18 05:17:46;;;;;;;25.30;11.90;;;;;;;-144.99;100.00;52374.72;5091998;28;20662;-73
2021/03/18 05:20:18;;;;;;;16.43;11.03;;;;;;;-144.99;100.00;52391.03;5094260;28;20650;-72
2021/03/18 05:22:46;;;;;;;27.27;13.60;;;;;;;-144.99;100.00;52382.88;5090402;28;20610;-73
2021/03/18 05:25:15;;;;;;;36.77;12.97;;;;;;;-144.99;100.00;52362.50;5086879;28;20637;-72
2021/03/18 05:27:42;;;;;;;17.23;11.47;;;;;;;-144.99;100.00;52366.56;5086754;28;20665;-73
2021/03/18 05:30:11;;;;;;;22.43;13.67;;;;;;;-144.99;100.00;52441.97;5074606;28;20622;-73
2021/03/18 05:32:37;;;;;;;16.97;11.73;;;;;;;-144.99;100.00;52370.63;5085537;28;20955;-74
2021/03/18 05:35:05;;;;;;;24.80;13.43;;;;;;;-144.99;100.00;52386.94;5087386;28;20618;-72
2021/03/18 05:37:31;;;;;;;18.20;12.37;;;;;;;-144.99;100.00;52395.09;5087211;28;21107;-74
2021/03/18 05:39:57;;;;;;;19.10;12.10;;;;;;;-144.99;100.00;52378.78;5087063;28;20688;-73
2021/03/18 05:42:23;;;;;;;24.90;12.60;;;;;;;-144.99;100.00;52358.41;5088482;28;20606;-72
2021/03/18 05:44:50;;;;;;;35.43;14.40;;;;;;;-144.99;100.00;52354.34;5085669;28;20717;-72
2021/03/18 05:47:16;;;;;;;33.43;15.73;;;;;;;-144.99;100.00;52382.88;5086843;28;20646;-72
2021/03/18 05:49:43;;;;;;;26.20;15.23;;;;;;;-144.99;100.00;52405.28;5086673;28;20625;-72
2021/03/18 05:52:12;;;;;;;25.87;12.60;;;;;;;-144.99;100.00;52401.22;5087067;28;20625;-71
2021/03/18 05:54:41;;;;;;;61.17;24.60;;;;;;;-144.99;100.00;52362.50;5086697;28;21184;-73
2021/03/18 05:57:10;;;;;;;41.37;15.17;;;;;;;-144.99;100.00;52403.25;5083260;28;20649;-72
2021/03/18 05:59:37;;;;;;;28.80;14.90;;;;;;;-144.99;100.00;52376.75;5085842;28;20731;-72
2021/03/18 06:02:04;;;;;;;23.60;14.10;;;;;;;-144.99;100.00;52376.75;5084213;28;20625;-75
2021/03/18 06:04:30;;;;;;;30.63;13.50;;;;;;;-144.99;100.00;52393.06;5089397;28;20625;-76
2021/03/18 06:06:56;;;;;;;34.33;13.07;;;;;;;-144.99;100.00;52399.19;5087829;28;21028;-74
2021/03/18 06:09:22;;;;;;;20.53;12.67;;;;;;;-144.99;100.00;52358.41;5086781;28;20622;-73
2021/03/18 06:11:48;;;;;;;27.23;13.80;;;;;;;-144.99;100.00;52415.47;5088109;28;20639;-77
2021/03/18 06:14:14;;;;;;;18.67;12.43;;;;;;;-144.99;100.00;52333.94;5087886;28;20622;-76
2021/03/18 06:16:40;;;;;;;35.33;14.37;;;;;;;-144.99;100.00;52393.06;5085735;28;20697;-74
2021/03/18 06:19:08;;;;;;;27.27;15.07;;;;;;;-144.99;100.00;52362.50;5087786;28;20216;-77
2021/03/18 06:21:45;;;;;;;24.17;12.90;;;;;;;-144.99;100.00;52362.50;5087868;28;21163;-75
2021/03/18 06:24:12;;;;;;;23.70;13.20;;;;;;;-144.99;100.00;52386.94;5087353;28;20618;-75
2021/03/18 06:26:38;;;;;;;35.17;17.23;;;;;;;-144.99;100.00;52378.78;5086226;28;20660;-74
2021/03/18 06:29:05;;;;;;;25.63;14.70;;;;;;;-144.99;100.00;52366.56;5088402;28;21015;-72
2021/03/18 06:31:32;;;;;;;25.07;13.10;;;;;;;-144.99;100.00;52358.41;5081997;28;20975;-70
2021/03/18 06:33:58;;;;;;;26.30;13.67;;;;;;;-144.99;100.00;52354.34;5086780;28;20626;-72
2021/03/18 06:36:27;;;;;;;28.43;14.07;;;;;;;-144.99;100.00;52391.03;5086220;28;21218;-72
2021/03/18 06:39:04;;;;;;;26.00;15.53;;;;;;;-144.99;100.00;52415.47;5084313;28;20741;-74
2021/03/18 06:41:34;;;;;;;18.60;11.83;;;;;;;-144.99;100.00;52415.47;5081940;28;20618;-73
2021/03/18 06:44:01;;;;;;;21.53;11.33;;;;;;;-144.99;100.00;52409.38;5086346;28;20618;-73
2021/03/18 06:46:27;;;;;;;22.30;10.47;;;;;;;-144.99;100.00;52370.63;5084086;28;20649;-73
2021/03/18 06:48:52;;;;;;;21.57;12.60;;;;;;;-144.99;100.00;52395.09;5087031;28;20714;-72
2021/03/18 06:51:21;;;;;;;20.33;11.53;;;;;;;-144.99;100.00;52374.72;5086586;28;20287;-74
2021/03/18 06:53:49;;;;;;;17.90;10.53;;;;;;;-144.99;100.00;52315.59;5086436;28;20199;-73
2021/03/18 06:56:21;;;;;;;26.37;11.63;;;;;;;-144.99;100.00;52346.19;5086571;28;20654;-72
2021/03/18 06:58:47;;;;;;;21.33;11.73;;;;;;;-144.99;100.00;52346.19;5090309;28;20680;-71
2021/03/18 07:01:13;;;;;;;17.93;11.17;;;;;;;-144.99;100.00;52391.03;5083032;28;20702;-72
2021/03/18 07:03:39;;;;;;;20.53;10.17;;;;;;;-144.99;100.00;52395.09;5083879;28;20718;-71
2021/03/18 07:06:07;;;;;;;18.83;12.43;;;;;;;-144.99;100.00;52352.28;5090036;28;20216;-73
2021/03/18 07:08:35;;;;;;;24.80;13.73;;;;;;;-144.99;100.00;52386.94;5090245;28;20614;-73
2021/03/18 07:11:16;;;;;;;19.33;12.43;;;;;;;-144.99;100.00;52362.50;5088994;28;20636;-74
2021/03/18 07:13:43;;;;;;;21.53;12.23;;;;;;;-144.99;100.00;52354.34;5081276;28;20618;-73
2021/03/18 07:16:10;;;;;;;20.57;12.60;;;;;;;-144.99;100.00;52395.09;5087686;28;20754;-72
2021/03/18 07:18:36;;;;;;;19.83;12.30;;;;;;;-144.99;100.00;52370.63;5090335;28;20628;-73
2021/03/18 07:21:04;;;;;;;19.10;11.53;;;;;;;-144.99;100.00;52382.88;5089164;28;20753;-73
2021/03/18 07:23:36;;;;;;;16.93;9.87;;;;;;;-144.99;100.00;52370.63;5089820;28;20618;-71
2021/03/18 07:26:11;;;;;;;17.57;11.43;;;;;;;-144.99;100.00;52378.78;5089061;28;21010;-71
2021/03/18 07:28:37;;;;;;;17.13;10.33;;;;;;;-144.99;100.00;52368.59;5083153;28;20667;-72
2021/03/18 07:31:04;;;;;;;15.00;11.40;;;;;;;-144.99;100.00;52399.19;5085992;28;20709;-72
2021/03/18 07:33:32;;;;;;;12.30;9.03;;;;;;;-144.99;100.00;52370.63;5090253;28;20196;-70
2021/03/18 07:35:58;;;;;;;20.67;10.57;;;;;;;-144.99;100.00;52372.69;5089556;28;20652;-71
2021/03/18 07:38:24;;;;;;;14.63;8.30;;;;;;;-144.99;100.00;52372.69;5089221;28;21178;-71
2021/03/18 07:40:50;;;;;;;15.13;9.83;;;;;;;-144.99;100.00;52395.09;5088455;28;20646;-71
2021/03/18 07:43:17;;;;;;;23.87;8.67;;;;;;;-144.99;100.00;52362.50;5089104;28;20645;-69
2021/03/18 07:45:45;;;;;;;15.20;7.87;;;;;;;-144.99;100.00;52364.53;5087157;28;20214;-74
2021/03/18 07:48:12;;;;;;;11.67;6.57;;;;;;;-144.99;100.00;52374.72;5089219;28;20621;-73
2021/03/18 07:50:40;;;;;;;13.53;7.87;;;;;;;-144.99;100.00;52350.25;5088418;28;20618;-73
2021/03/18 07:53:09;;;;;;;12.23;6.60;;;;;;;-144.99;100.00;52362.50;5089875;28;20679;-71
2021/03/18 07:55:36;;;;;;;12.37;6.67;;;;;;;-144.99;100.00;52370.63;5087530;28;20610;-74
2021/03/18 07:58:03;;;;;;;17.03;7.67;;;;;;;-144.99;100.00;52333.94;5088993;28;20678;-70
2021/03/18 08:00:32;;;;;;;13.63;7.97;;;;;;;-144.99;100.00;52331.91;5086498;28;20653;-71
2021/03/18 08:03:27;;;;;;;21.83;10.73;;;;;;;-144.99;100.00;52431.78;5084502;28;21143;-70
2021/03/18 08:05:54;;;;;;;10.63;8.10;;;;;;;-144.99;100.00;52360.44;5081331;28;21247;-70
2021/03/18 08:08:37;;;;;;;10.37;7.57;;;;;;;-144.99;100.00;52354.34;5086095;28;20988;-79
2021/03/18 08:11:05;;;;;;;14.20;10.13;;;;;;;-144.99;100.00;52378.78;5090222;28;20625;-78
2021/03/18 08:13:33;;;;;;;11.20;7.00;;;;;;;-144.99;100.00;52350.25;5097440;28;20653;-77
2021/03/18 08:16:00;;;;;;;15.90;9.47;;;;;;;-144.99;100.00;52395.09;5110055;28;20672;-78
2021/03/18 08:18:44;;;;;;;11.53;7.70;;;;;;;-144.99;100.00;52354.34;5106736;28;20625;-78
2021/03/18 08:21:14;;;;;;;9.33;6.57;;;;;;;-144.99;100.00;52364.53;5103852;28;20646;-80
2021/03/18 08:23:51;;;;;;;11.70;8.83;;;;;;;-144.99;100.00;52366.56;5096499;28;20714;-78
2021/03/18 08:26:43;;;;;;;12.80;9.37;;;;;;;-144.99;100.00;52325.81;5088701;28;20760;-78
2021/03/18 08:29:25;;;;;;;11.63;6.70;;;;;;;-144.99;100.00;52346.19;5089665;28;20630;-76
2021/03/18 08:32:03;;;;;;;13.57;7.23;;;;;;;-144.99;100.00;52395.09;5084439;28;20690;-77
2021/03/18 08:34:57;;;;;;;11.03;6.60;;;;;;;-144.99;100.00;52348.22;5092407;28;20626;-78
2021/03/18 08:37:37;;;;;;;9.40;6.80;;;;;;;-144.99;100.00;52360.44;5046615;28;20664;-78
2021/03/18 08:40:06;;;;;;;15.13;7.60;;;;;;;-144.99;100.00;52342.09;5082466;28;20723;-75
2021/03/18 08:42:45;;;;;;;16.40;6.63;;;;;;;-144.99;100.00;52352.28;5089188;28;20649;-76
2021/03/18 08:45:37;;;;;;;11.17;7.40;;;;;;;-144.99;100.00;52346.19;5085980;28;20724;-75
2021/03/18 08:48:18;;;;;;;10.77;7.33;;;;;;;-144.99;100.00;52309.50;5082530;28;21054;-78
2021/03/18 08:50:57;;;;;;;11.50;8.27;;;;;;;-144.99;100.00;52362.50;5097218;28;20633;-76
2021/03/18 08:53:44;;;;;;;12.07;8.20;;;;;;;-144.99;100.00;52344.16;5083306;28;20679;-74
2021/03/18 08:56:10;;;;;;;10.67;7.20;;;;;;;-144.99;100.00;52342.09;5094363;28;20657;-75
2021/03/18 08:58:48;;;;;;;14.03;7.57;;;;;;;-144.99;100.00;52374.72;5088349;28;20636;-71
2021/03/18 09:01:16;;;;;;;10.60;6.80;;;;;;;-144.99;100.00;52370.63;5086283;28;20918;-73
2021/03/18 09:03:43;;;;;;;11.93;7.00;;;;;;;-144.99;100.00;52384.91;5081720;28;20634;-76
2021/03/18 09:06:09;;;;;;;14.23;9.17;;;;;;;-144.99;99.96;52329.88;5087262;28;21111;-75
2021/03/18 09:08:35;;;;;;;8.63;6.60;;;;;;;-144.99;99.90;52354.34;5088806;28;20675;-78
2021/03/18 09:11:02;;;;;;;14.17;7.80;;;;;;;-144.99;98.93;52350.25;5078059;28;20606;-75
2021/03/18 09:13:28;;;;;;;11.83;6.17;;;;;;;-144.99;97.78;52362.50;5087734;28;20649;-74
2021/03/18 09:15:57;;;;;;;8.87;6.43;;;;;;;-144.99;97.01;52370.63;4379615;28;10000732;-76
2021/03/18 09:18:25;;;;;;;13.27;7.67;;;;;;;-144.99;97.38;52340.06;5083277;28;20702;-76
2021/03/18 09:20:56;;;;;;;10.27;6.47;;;;;;;-144.99;96.48;52348.22;5084732;28;20260;-76
2021/03/18 09:23:24;;;;;;;13.67;7.63;;;;;;;-144.99;96.30;52370.63;5088270;28;20779;-77
2021/03/18 09:25:53;;;;;;;8.47;6.07;;;;;;;-144.99;95.72;52336.00;5083477;28;20646;-79
2021/03/18 09:28:19;;;;;;;15.63;6.57;;;;;;;-144.99;95.44;52354.34;5091016;28;20265;-75
2021/03/18 09:30:47;;;;;;;12.57;7.30;;;;;;;-144.99;94.70;52342.09;5080083;28;20626;-75
2021/03/18 09:33:23;;;;;;;7.90;6.00;;;;;;;-144.99;93.42;52342.09;5109835;22;20682;-72
2021/03/18 09:35:51;;;;;;;8.83;6.40;;;;;;;-144.99;92.79;52342.09;5063860;28;20753;-70
2021/03/18 09:38:22;;;;;;;10.03;6.63;;;;;;;-144.99;92.58;52333.94;5055302;28;20628;-70
2021/03/18 09:40:49;;;;;;;11.20;5.60;;;;;;;-144.99;92.04;52338.03;5055129;28;20655;-70
2021/03/18 09:43:17;;;;;;;11.60;6.83;;;;;;;-144.99;91.28;52350.25;5065821;28;20651;-71
2021/03/18 09:45:55;;;;;;;9.17;8.27;;;;;;;-144.99;91.12;52342.09;5064359;28;20623;-72
2021/03/18 09:48:31;;;;;;;12.57;6.33;;;;;;;-144.99;89.88;52350.25;5061596;28;20639;-72
2021/03/18 09:51:08;;;;;;;10.77;7.27;;;;;;;-144.99;89.05;52303.38;5057808;28;20644;-72
2021/03/18 09:53:36;;;;;;;12.77;7.87;;;;;;;-144.99;88.25;52305.41;5065442;28;20658;-72
2021/03/18 09:56:05;;;;;;;7.17;6.43;;;;;;;-144.99;86.79;52309.50;5064829;28;20188;-72
2021/03/18 09:58:31;;;;;;;14.87;10.33;;;;;;;-144.99;85.61;52342.09;5052757;28;20326;-70
2021/03/18 10:00:57;;;;;;;12.33;6.43;;;;;;;-144.99;84.56;52342.09;5068561;28;21212;-71
2021/03/18 10:03:23;;;;;;;11.07;8.73;;;;;;;-144.99;84.67;52333.94;5066755;28;20251;-72
2021/03/18 10:05:49;;;;;;;10.80;6.33;;;;;;;-144.99;82.09;52307.47;5059124;28;20271;-71
2021/03/18 10:08:22;;;;;;;11.90;6.40;;;;;;;-144.99;81.62;52293.19;5055983;28;20659;-72
2021/03/18 10:10:49;;;;;;;10.37;7.13;;;;;;;-144.99;78.98;52323.75;5054995;28;20222;-71
2021/03/18 10:13:16;;;;;;;12.90;7.20;;;;;;;-144.99;77.48;52295.22;5056450;28;20227;-73
2021/03/18 10:15:42;;;;;;;10.07;6.93;;;;;;;-144.99;76.43;52262.63;5057333;28;20197;-72
2021/03/18 10:18:08;;;;;;;8.47;6.90;;;;;;;-144.99;73.30;52289.13;5059322;28;20588;-71
2021/03/18 10:20:36;;;;;;;13.73;7.13;;;;;;;-144.99;69.48;52256.50;5063075;28;20220;-74
2021/03/18 10:23:06;;;;;;;14.60;6.87;;;;;;;-144.99;64.46;52256.50;5058394;28;20220;-72
2021/03/18 10:25:34;;;;;;;11.63;5.83;;;;;;;-144.99;60.96;52287.06;5063636;28;20269;-71
2021/03/18 10:28:05;;;;;;;10.97;6.93;;;;;;;-144.99;60.21;52280.97;5051244;28;20284;-71
2021/03/18 10:30:32;;;;;;;9.10;5.57;;;;;;;-144.99;61.45;52256.50;5045531;28;20630;-71
2021/03/18 10:33:08;;;;;;;8.13;5.53;;;;;;;-144.99;62.47;52299.31;5068681;28;20228;-72
2021/03/18 10:35:38;;;;;;;12.73;9.70;;;;;;;-144.99;61.29;52305.41;5057447;28;20227;-71
2021/03/18 10:38:05;;;;;;;10.17;6.17;;;;;;;-144.99;62.17;52317.66;5056346;28;20284;-72
2021/03/18 10:40:38;;;;;;;9.40;6.00;;;;;;;-144.99;63.42;52309.50;5069050;28;20223;-71
2021/03/18 10:43:18;;;;;;;10.57;7.53;;;;;;;-144.99;64.89;52317.66;5053007;28;20914;-72
2021/03/18 10:45:45;;;;;;;10.47;7.53;;;;;;;-144.99;66.66;52309.50;5053212;28;20201;-71
2021/03/18 10:48:11;;;;;;;8.93;5.30;;;;;;;-144.99;67.39;52356.38;5059167;28;20255;-70
2021/03/18 10:50:39;;;;;;;10.70;5.30;;;;;;;-144.99;68.71;52370.63;5058279;28;20207;-71
2021/03/18 10:53:07;;;;;;;7.80;5.37;;;;;;;-144.99;68.98;52317.66;5051916;28;20275;-72
2021/03/18 10:55:35;;;;;;;9.90;5.00;;;;;;;-144.99;69.56;52346.19;5055477;28;20200;-72
2021/03/18 10:58:05;;;;;;;10.03;5.77;;;;;;;-144.99;70.21;52342.09;5062897;28;20227;-74
2021/03/18 11:00:34;;;;;;;8.10;4.73;;;;;;;-144.99;69.69;52331.91;5062963;28;20637;-73
2021/03/18 11:03:03;;;;;;;8.33;3.57;;;;;;;-144.99;69.55;52321.72;5058848;28;20694;-74
2021/03/18 11:05:39;;;;;;;6.57;3.50;;;;;;;-144.99;67.95;52313.56;5060383;28;20280;-71
2021/03/18 11:08:06;;;;;;;6.00;4.10;;;;;;;-144.99;66.41;52297.25;5058966;28;20208;-74